createdAt,value
2019-05-30T00:00:51.792Z,0.00
2019-05-30T00:01:18.566Z,0.00
2019-05-30T00:02:18.551Z,0.00
2019-05-30T00:03:18.533Z,0.00
2019-05-30T00:04:18.535Z,0.00
2019-05-30T00:05:18.501Z,0.00
2019-05-30T00:06:18.485Z,0.00
2019-05-30T00:07:18.470Z,0.00
2019-05-30T00:08:18.432Z,0.00
2019-05-30T00:09:18.417Z,0.00
2019-05-30T00:10:18.401Z,0.00
2019-05-30T00:11:18.383Z,0.00
2019-05-30T00:12:18.367Z,0.00
2019-05-30T00:13:18.356Z,0.00
2019-05-30T00:14:18.337Z,0.00
2019-05-30T00:15:18.321Z,0.00
2019-05-30T00:16:18.304Z,0.00
2019-05-30T00:17:18.289Z,0.00
2019-05-30T00:18:18.272Z,0.00
2019-05-30T00:19:18.264Z,0.00
2019-05-30T00:20:18.240Z,0.00
2019-05-30T00:21:18.226Z,0.00
2019-05-30T00:22:18.206Z,0.00
2019-05-30T00:23:18.192Z,0.00
2019-05-30T00:24:18.180Z,0.00
2019-05-30T00:25:18.158Z,0.00
2019-05-30T00:26:18.143Z,0.00
2019-05-30T00:27:18.127Z,0.00
2019-05-30T00:28:18.109Z,0.00
2019-05-30T00:29:18.094Z,0.00
2019-05-30T00:30:24.579Z,0.00
2019-05-30T00:31:18.062Z,0.00
2019-05-30T00:32:18.052Z,0.00
2019-05-30T00:33:18.029Z,0.00
2019-05-30T00:34:18.013Z,0.00
2019-05-30T00:35:18.010Z,0.00
2019-05-30T00:36:17.987Z,0.00
2019-05-30T00:37:17.966Z,0.00
2019-05-30T00:38:17.952Z,0.00
2019-05-30T00:39:17.936Z,0.00
2019-05-30T00:40:17.921Z,0.00
2019-05-30T00:41:17.904Z,0.00
2019-05-30T00:42:17.889Z,0.00
2019-05-30T00:43:17.869Z,0.00
2019-05-30T00:44:17.855Z,0.00
2019-05-30T00:45:21.046Z,0.00
2019-05-30T00:46:17.821Z,0.00
2019-05-30T00:47:17.808Z,0.00
2019-05-30T00:48:17.792Z,0.00
2019-05-30T00:49:17.774Z,0.00
2019-05-30T00:50:17.757Z,0.00
2019-05-30T00:51:17.747Z,0.00
2019-05-30T00:52:17.726Z,0.00
2019-05-30T00:53:17.711Z,0.00
2019-05-30T00:54:17.695Z,0.00
2019-05-30T00:55:17.686Z,0.00
2019-05-30T00:56:17.661Z,0.00
2019-05-30T00:57:17.650Z,0.00
2019-05-30T00:58:17.631Z,0.00
2019-05-30T00:59:17.616Z,0.00
2019-05-30T01:00:17.614Z,0.00
2019-05-30T01:01:17.585Z,0.00
2019-05-30T01:02:17.568Z,0.00
2019-05-30T01:03:17.555Z,0.00
2019-05-30T01:04:17.543Z,0.00
2019-05-30T01:05:17.523Z,0.00
2019-05-30T01:06:17.519Z,0.00
2019-05-30T01:07:17.496Z,0.00
2019-05-30T01:08:17.476Z,0.00
2019-05-30T01:09:17.454Z,0.00
2019-05-30T01:10:17.444Z,0.00
2019-05-30T01:11:17.443Z,0.00
2019-05-30T01:12:17.418Z,0.00
2019-05-30T01:13:17.388Z,0.00
2019-05-30T01:14:17.373Z,0.00
2019-05-30T01:15:17.358Z,0.00
2019-05-30T01:16:17.343Z,0.00
2019-05-30T01:17:17.325Z,0.00
2019-05-30T01:18:17.310Z,0.00
2019-05-30T01:19:17.296Z,0.00
2019-05-30T01:20:17.279Z,0.00
2019-05-30T01:21:17.268Z,0.00
2019-05-30T01:22:17.246Z,0.00
2019-05-30T01:23:17.230Z,0.00
2019-05-30T01:24:17.215Z,0.00
2019-05-30T01:25:17.200Z,0.00
2019-05-30T01:26:17.181Z,0.00
2019-05-30T01:27:17.170Z,0.00
2019-05-30T01:28:17.149Z,0.00
2019-05-30T01:29:17.137Z,0.00
2019-05-30T01:30:17.121Z,0.00
2019-05-30T01:31:17.105Z,0.00
2019-05-30T01:32:17.089Z,0.00
2019-05-30T01:33:17.074Z,0.00
2019-05-30T01:34:17.057Z,0.00
2019-05-30T01:35:17.042Z,0.00
2019-05-30T01:36:17.022Z,0.00
2019-05-30T01:37:17.010Z,0.00
2019-05-30T01:38:16.991Z,0.00
2019-05-30T01:39:16.975Z,0.00
2019-05-30T01:40:16.960Z,0.00
2019-05-30T01:41:17.660Z,0.00
2019-05-30T01:42:16.927Z,0.00
2019-05-30T01:43:16.915Z,0.00
2019-05-30T01:44:16.894Z,0.00
2019-05-30T01:45:16.880Z,0.00
2019-05-30T01:46:16.861Z,0.00
2019-05-30T01:47:16.846Z,0.00
2019-05-30T01:48:16.832Z,0.00
2019-05-30T01:49:16.815Z,0.00
2019-05-30T01:50:16.799Z,0.00
2019-05-30T01:51:16.784Z,0.00
2019-05-30T01:52:16.766Z,0.00
2019-05-30T01:53:16.752Z,0.00
2019-05-30T01:54:16.734Z,0.00
2019-05-30T01:55:16.719Z,0.00
2019-05-30T01:56:16.708Z,0.00
2019-05-30T01:57:16.690Z,0.00
2019-05-30T01:58:16.670Z,0.00
2019-05-30T01:59:16.658Z,0.00
2019-05-30T02:00:21.182Z,0.00
2019-05-30T02:01:24.245Z,0.00
2019-05-30T02:02:16.606Z,0.00
2019-05-30T02:03:16.592Z,0.00
2019-05-30T02:04:16.576Z,0.00
2019-05-30T02:05:16.560Z,0.00
2019-05-30T02:06:16.551Z,0.00
2019-05-30T02:07:16.528Z,0.00
2019-05-30T02:08:16.517Z,0.00
2019-05-30T02:09:16.528Z,0.00
2019-05-30T02:10:16.479Z,0.00
2019-05-30T02:11:16.470Z,0.00
2019-05-30T02:12:16.451Z,0.00
2019-05-30T02:13:16.433Z,0.00
2019-05-30T02:14:16.416Z,0.00
2019-05-30T02:15:16.402Z,0.00
2019-05-30T02:16:16.386Z,0.00
2019-05-30T02:17:16.373Z,0.00
2019-05-30T02:18:16.356Z,0.00
2019-05-30T02:19:16.339Z,0.00
2019-05-30T02:20:16.322Z,0.00
2019-05-30T02:21:16.306Z,0.00
2019-05-30T02:22:16.289Z,0.00
2019-05-30T02:23:16.275Z,0.00
2019-05-30T02:24:16.357Z,0.00
2019-05-30T02:25:16.243Z,0.00
2019-05-30T02:26:16.229Z,0.00
2019-05-30T02:27:16.212Z,0.00
2019-05-30T02:28:16.201Z,0.00
2019-05-30T02:29:16.183Z,0.00
2019-05-30T02:30:16.170Z,0.00
2019-05-30T02:31:16.150Z,0.00
2019-05-30T02:32:16.136Z,0.00
2019-05-30T02:33:16.119Z,0.00
2019-05-30T02:34:16.101Z,0.00
2019-05-30T02:35:16.085Z,0.00
2019-05-30T02:36:16.075Z,0.00
2019-05-30T02:37:16.056Z,0.00
2019-05-30T02:38:16.042Z,0.00
2019-05-30T02:39:16.024Z,0.00
2019-05-30T02:40:16.008Z,0.00
2019-05-30T02:41:15.990Z,0.00
2019-05-30T02:42:15.993Z,0.00
2019-05-30T02:43:15.963Z,0.00
2019-05-30T02:44:15.946Z,0.00
2019-05-30T02:45:15.927Z,0.00
2019-05-30T02:46:15.913Z,0.00
2019-05-30T02:47:15.894Z,0.00
2019-05-30T02:48:15.879Z,0.00
2019-05-30T02:49:15.863Z,0.00
2019-05-30T02:50:15.850Z,0.00
2019-05-30T02:51:15.830Z,0.00
2019-05-30T02:52:15.820Z,0.00
2019-05-30T02:53:15.801Z,4.00
2019-05-30T02:54:15.785Z,4.00
2019-05-30T02:55:15.769Z,4.00
2019-05-30T02:56:15.756Z,4.00
2019-05-30T02:57:15.739Z,0.00
2019-05-30T02:58:15.721Z,4.00
2019-05-30T02:59:15.705Z,4.00
2019-05-30T03:00:17.588Z,4.00
2019-05-30T03:01:15.680Z,4.00
2019-05-30T03:02:17.629Z,4.00
2019-05-30T03:03:15.649Z,8.00
2019-05-30T03:04:15.626Z,8.00
2019-05-30T03:05:15.610Z,12.00
2019-05-30T03:06:15.594Z,12.00
2019-05-30T03:07:15.578Z,16.00
2019-05-30T03:08:15.576Z,16.00
2019-05-30T03:09:15.548Z,20.00
2019-05-30T03:10:15.627Z,20.00
2019-05-30T03:11:15.705Z,24.00
2019-05-30T03:12:15.502Z,28.00
2019-05-30T03:13:15.508Z,32.00
2019-05-30T03:14:19.547Z,36.00
2019-05-30T03:15:16.045Z,40.00
2019-05-30T03:16:15.438Z,44.00
2019-05-30T03:17:15.420Z,48.00
2019-05-30T03:18:15.519Z,52.00
2019-05-30T03:19:15.388Z,60.00
2019-05-30T03:20:22.579Z,64.00
2019-05-30T03:21:15.790Z,68.00
2019-05-30T03:22:15.340Z,72.00
2019-05-30T03:23:15.343Z,72.00
2019-05-30T03:24:15.311Z,80.00
2019-05-30T03:25:16.129Z,88.00
2019-05-30T03:26:16.061Z,96.00
2019-05-30T03:27:15.261Z,108.00
2019-05-30T03:28:15.249Z,112.00
2019-05-30T03:29:15.230Z,124.00
2019-05-30T03:30:26.018Z,128.00
2019-05-30T03:31:25.942Z,136.00
2019-05-30T03:33:00.924Z,144.00
2019-05-30T03:33:32.227Z,152.00
2019-05-30T03:34:26.351Z,164.00
2019-05-30T03:35:27.865Z,176.00
2019-05-30T03:36:26.916Z,192.00
2019-05-30T03:37:26.840Z,212.00
2019-05-30T03:38:15.707Z,228.00
2019-05-30T03:39:15.562Z,248.00
2019-05-30T03:40:15.055Z,264.00
2019-05-30T03:41:15.047Z,280.00
2019-05-30T03:42:15.968Z,300.00
2019-05-30T03:43:15.919Z,316.00
2019-05-30T03:44:15.605Z,336.00
2019-05-30T03:45:16.576Z,356.00
2019-05-30T03:46:15.050Z,372.00
2019-05-30T03:47:15.612Z,392.00
2019-05-30T03:48:16.246Z,408.00
2019-05-30T03:49:15.106Z,424.00
2019-05-30T03:50:17.388Z,448.00
2019-05-30T03:51:15.197Z,476.00
2019-05-30T03:52:17.110Z,508.00
2019-05-30T03:53:16.195Z,544.00
2019-05-30T03:54:15.971Z,580.00
2019-05-30T03:55:16.499Z,620.00
2019-05-30T03:56:15.996Z,656.00
2019-05-30T03:57:15.641Z,688.00
2019-05-30T03:58:16.456Z,712.00
2019-05-30T03:59:14.890Z,740.00
2019-05-30T04:00:16.059Z,768.00
2019-05-30T04:01:14.925Z,804.00
2019-05-30T04:02:15.756Z,832.00
2019-05-30T04:03:15.572Z,860.00
2019-05-30T04:04:16.587Z,876.00
2019-05-30T04:05:16.087Z,896.00
2019-05-30T04:06:16.310Z,924.00
2019-05-30T04:07:15.810Z,944.00
2019-05-30T04:08:16.067Z,968.00
2019-05-30T04:09:21.635Z,996.00
2019-05-30T04:10:15.773Z,1036.00
2019-05-30T04:11:16.593Z,1092.00
2019-05-30T04:12:16.484Z,1168.00
2019-05-30T04:13:15.368Z,1256.00
2019-05-30T04:14:15.703Z,1364.00
2019-05-30T04:15:16.601Z,1484.00
2019-05-30T04:16:15.887Z,1612.00
2019-05-30T04:17:16.001Z,1732.00
2019-05-30T04:18:16.293Z,1804.00
2019-05-30T04:19:15.538Z,1824.00
2019-05-30T04:20:17.812Z,1808.00
2019-05-30T04:21:17.655Z,1760.00
2019-05-30T04:22:15.540Z,1716.00
2019-05-30T04:23:14.812Z,1680.00
2019-05-30T04:24:16.181Z,1648.00
2019-05-30T04:25:14.454Z,1660.00
2019-05-30T04:26:15.699Z,1712.00
2019-05-30T04:27:15.935Z,1788.00
2019-05-30T04:28:16.004Z,1880.00
2019-05-30T04:29:15.005Z,1968.00
2019-05-30T04:30:14.474Z,2044.00
2019-05-30T04:31:14.553Z,2108.00
2019-05-30T04:32:14.453Z,2164.00
2019-05-30T04:33:26.968Z,2208.00
2019-05-30T04:34:14.974Z,2236.00
2019-05-30T04:35:14.690Z,2260.00
2019-05-30T04:36:14.582Z,2284.00
2019-05-30T04:37:14.817Z,2316.00
2019-05-30T04:38:14.692Z,2364.00
2019-05-30T04:39:15.161Z,2392.00
2019-05-30T04:40:15.333Z,2388.00
2019-05-30T04:41:15.744Z,2368.00
2019-05-30T04:42:15.935Z,2356.00
2019-05-30T04:43:15.327Z,2364.00
2019-05-30T04:44:16.038Z,2396.00
2019-05-30T04:45:15.832Z,2424.00
2019-05-30T04:46:14.917Z,2440.00
2019-05-30T04:47:14.291Z,2456.00
2019-05-30T04:48:14.191Z,2476.00
2019-05-30T04:49:14.421Z,2508.00
2019-05-30T04:50:14.305Z,2548.00
2019-05-30T04:51:14.560Z,2604.00
2019-05-30T04:52:17.444Z,2716.00
2019-05-30T04:53:14.192Z,2836.00
2019-05-30T04:54:14.621Z,2944.00
2019-05-30T04:55:15.961Z,3016.00
2019-05-30T04:56:14.586Z,3048.00
2019-05-30T04:57:14.960Z,3060.00
2019-05-30T04:58:15.265Z,3092.00
2019-05-30T04:59:15.210Z,3116.00
2019-05-30T05:00:15.109Z,3144.00
2019-05-30T05:01:15.308Z,3128.00
2019-05-30T05:02:15.732Z,3104.00
2019-05-30T05:03:15.290Z,3040.00
2019-05-30T05:04:15.360Z,2976.00
2019-05-30T05:05:18.744Z,3008.00
2019-05-30T05:06:13.900Z,3000.00
2019-05-30T05:07:13.692Z,2992.00
2019-05-30T05:08:13.775Z,3020.00
2019-05-30T05:09:13.998Z,3100.00
2019-05-30T05:10:13.993Z,3136.00
2019-05-30T05:11:16.539Z,3116.00
2019-05-30T05:12:13.971Z,3260.00
2019-05-30T05:13:14.113Z,3488.00
2019-05-30T05:14:14.338Z,3556.00
2019-05-30T05:15:14.317Z,3672.00
2019-05-30T05:16:26.115Z,3868.00
2019-05-30T05:17:14.707Z,3964.00
2019-05-30T05:18:14.868Z,4012.00
2019-05-30T05:19:14.791Z,4316.00
2019-05-30T05:20:13.524Z,4656.00
2019-05-30T05:21:14.623Z,4864.00
2019-05-30T05:22:13.457Z,5048.00
2019-05-30T05:23:13.441Z,5264.00
2019-05-30T05:24:13.468Z,5404.00
2019-05-30T05:25:13.411Z,5452.00
2019-05-30T05:26:13.485Z,5460.00
2019-05-30T05:27:13.581Z,5416.00
2019-05-30T05:28:13.661Z,5368.00
2019-05-30T05:29:13.959Z,5248.00
2019-05-30T05:30:13.962Z,5108.00
2019-05-30T05:31:14.421Z,5088.00
2019-05-30T05:32:14.100Z,4992.00
2019-05-30T05:33:14.435Z,4928.00
2019-05-30T05:34:14.413Z,5024.00
2019-05-30T05:35:14.666Z,5136.00
2019-05-30T05:36:13.240Z,5304.00
2019-05-30T05:37:13.229Z,5484.00
2019-05-30T05:38:13.214Z,5664.00
2019-05-30T05:39:13.196Z,5944.00
2019-05-30T05:40:13.178Z,6348.00
2019-05-30T05:41:13.164Z,6916.00
2019-05-30T05:42:13.153Z,7612.00
2019-05-30T05:43:13.135Z,8076.00
2019-05-30T05:44:13.119Z,8472.00
2019-05-30T05:45:13.105Z,8864.00
2019-05-30T05:46:13.088Z,9052.00
2019-05-30T05:47:13.071Z,9168.00
2019-05-30T05:48:13.057Z,8968.00
2019-05-30T05:49:13.042Z,8120.00
2019-05-30T05:50:13.025Z,7640.00
2019-05-30T05:51:13.017Z,7636.00
2019-05-30T05:52:13.000Z,7720.00
2019-05-30T05:53:12.984Z,7708.00
2019-05-30T05:54:12.965Z,7612.00
2019-05-30T05:55:12.950Z,7496.00
2019-05-30T05:56:12.935Z,7332.00
2019-05-30T05:57:12.919Z,7368.00
2019-05-30T05:58:12.915Z,7316.00
2019-05-30T05:59:12.889Z,7328.00
2019-05-30T06:00:12.873Z,7368.00
2019-05-30T06:01:12.859Z,7520.00
2019-05-30T06:02:12.903Z,7728.00
2019-05-30T06:03:12.827Z,7596.00
2019-05-30T06:04:13.773Z,7576.00
2019-05-30T06:05:12.796Z,7600.00
2019-05-30T06:06:12.781Z,7400.00
2019-05-30T06:07:12.766Z,7020.00
2019-05-30T06:08:12.750Z,7044.00
2019-05-30T06:09:12.740Z,7272.00
2019-05-30T06:10:12.721Z,7624.00
2019-05-30T06:11:12.711Z,8180.00
2019-05-30T06:12:12.688Z,8648.00
2019-05-30T06:13:12.675Z,8944.00
2019-05-30T06:14:12.657Z,8804.00
2019-05-30T06:15:12.641Z,8996.00
2019-05-30T06:16:12.627Z,9944.00
2019-05-30T06:17:12.614Z,10508.00
2019-05-30T06:18:12.600Z,10864.00
2019-05-30T06:19:12.580Z,11220.00
2019-05-30T06:20:12.571Z,11480.00
2019-05-30T06:21:12.556Z,11592.00
2019-05-30T06:22:12.534Z,11640.00
2019-05-30T06:23:12.519Z,11536.00
2019-05-30T06:24:12.505Z,11396.00
2019-05-30T06:25:12.492Z,11548.00
2019-05-30T06:26:12.474Z,11856.00
2019-05-30T06:27:12.466Z,12564.00
2019-05-30T06:28:12.445Z,13136.00
2019-05-30T06:29:12.432Z,13108.00
2019-05-30T06:30:12.441Z,12884.00
2019-05-30T06:31:12.413Z,12544.00
2019-05-30T06:32:12.389Z,12320.00
2019-05-30T06:33:12.373Z,12368.00
2019-05-30T06:34:27.951Z,12496.00
2019-05-30T06:35:12.339Z,12504.00
2019-05-30T06:36:12.327Z,12812.00
2019-05-30T06:37:12.347Z,13288.00
2019-05-30T06:38:12.303Z,13624.00
2019-05-30T06:39:12.284Z,13864.00
2019-05-30T06:40:12.266Z,14012.00
2019-05-30T06:41:12.251Z,13972.00
2019-05-30T06:42:12.236Z,14720.00
2019-05-30T06:43:12.221Z,16020.00
2019-05-30T06:44:12.210Z,17696.00
2019-05-30T06:45:12.194Z,19264.00
2019-05-30T06:46:12.179Z,19712.00
2019-05-30T06:47:12.167Z,20448.00
2019-05-30T06:48:12.152Z,21920.00
2019-05-30T06:49:12.134Z,22336.00
2019-05-30T06:50:12.121Z,21024.00
2019-05-30T06:51:14.491Z,18600.00
2019-05-30T06:52:12.098Z,16364.00
2019-05-30T06:53:12.080Z,14832.00
2019-05-30T06:54:12.066Z,13260.00
2019-05-30T06:55:12.051Z,12260.00
2019-05-30T06:56:12.039Z,11992.00
2019-05-30T06:57:12.025Z,12572.00
2019-05-30T06:58:12.009Z,14132.00
2019-05-30T06:59:11.997Z,16812.00
2019-05-30T07:00:11.982Z,18084.00
2019-05-30T07:01:11.965Z,18132.00
2019-05-30T07:02:11.951Z,18572.00
2019-05-30T07:03:11.996Z,19232.00
2019-05-30T07:04:12.233Z,20288.00
2019-05-30T07:05:12.573Z,22656.00
2019-05-30T07:06:12.298Z,24000.00
2019-05-30T07:07:12.030Z,22464.00
2019-05-30T07:08:11.869Z,23488.00
2019-05-30T07:09:11.857Z,24064.00
2019-05-30T07:10:11.845Z,25184.00
2019-05-30T07:11:11.832Z,27328.00
2019-05-30T07:12:12.096Z,26784.00
2019-05-30T07:13:11.805Z,24608.00
2019-05-30T07:14:11.788Z,22208.00
2019-05-30T07:15:11.778Z,20544.00
2019-05-30T07:16:11.783Z,19840.00
2019-05-30T07:17:11.748Z,19776.00
2019-05-30T07:18:11.734Z,18976.00
2019-05-30T07:19:11.724Z,16092.00
2019-05-30T07:20:11.711Z,15352.00
2019-05-30T07:21:11.695Z,15164.00
2019-05-30T07:22:11.682Z,14992.00
2019-05-30T07:23:11.667Z,14084.00
2019-05-30T07:24:11.655Z,12964.00
2019-05-30T07:25:11.645Z,15188.00
2019-05-30T07:26:11.630Z,17232.00
2019-05-30T07:27:11.613Z,18276.00
2019-05-30T07:28:11.601Z,19296.00
2019-05-30T07:29:11.590Z,19552.00
2019-05-30T07:30:11.576Z,20064.00
2019-05-30T07:31:11.559Z,20800.00
2019-05-30T07:32:13.439Z,20832.00
2019-05-30T07:33:11.533Z,20032.00
2019-05-30T07:34:11.530Z,18448.00
2019-05-30T07:35:11.508Z,16680.00
2019-05-30T07:36:11.495Z,15300.00
2019-05-30T07:37:11.478Z,14304.00
2019-05-30T07:38:11.463Z,12968.00
2019-05-30T07:39:11.452Z,12308.00
2019-05-30T07:40:11.440Z,12024.00
2019-05-30T07:41:11.425Z,11864.00
2019-05-30T07:42:11.410Z,11756.00
2019-05-30T07:43:11.396Z,11656.00
2019-05-30T07:44:11.381Z,11324.00
2019-05-30T07:45:11.371Z,10828.00
2019-05-30T07:46:11.353Z,11220.00
2019-05-30T07:47:11.342Z,11616.00
2019-05-30T07:48:11.330Z,11584.00
2019-05-30T07:49:11.312Z,11340.00
2019-05-30T07:50:11.300Z,11256.00
2019-05-30T07:51:11.284Z,11316.00
2019-05-30T07:52:11.270Z,11444.00
2019-05-30T07:53:11.257Z,11028.00
2019-05-30T07:54:11.242Z,10560.00
2019-05-30T07:55:11.228Z,10472.00
2019-05-30T07:56:11.213Z,11372.00
2019-05-30T07:57:11.198Z,11904.00
2019-05-30T07:58:11.196Z,11440.00
2019-05-30T07:59:11.170Z,10228.00
2019-05-30T08:00:11.219Z,10120.00
2019-05-30T08:01:11.142Z,9988.00
2019-05-30T08:02:11.126Z,9644.00
2019-05-30T08:03:11.117Z,9644.00
2019-05-30T08:04:11.099Z,9832.00
2019-05-30T08:05:23.687Z,9920.00
2019-05-30T08:06:11.069Z,9944.00
2019-05-30T08:07:11.055Z,10372.00
2019-05-30T08:08:11.044Z,10900.00
2019-05-30T08:09:11.029Z,11232.00
2019-05-30T08:10:11.051Z,11276.00
2019-05-30T08:11:11.000Z,10992.00
2019-05-30T08:12:10.986Z,11004.00
2019-05-30T08:13:10.970Z,11204.00
2019-05-30T08:14:10.956Z,11364.00
2019-05-30T08:15:10.945Z,11892.00
2019-05-30T08:16:10.930Z,13444.00
2019-05-30T08:17:10.914Z,15456.00
2019-05-30T08:18:10.906Z,16312.00
2019-05-30T08:19:10.887Z,18284.00
2019-05-30T08:20:10.924Z,20256.00
2019-05-30T08:21:10.856Z,20960.00
2019-05-30T08:22:10.846Z,22176.00
2019-05-30T08:23:10.828Z,22592.00
2019-05-30T08:24:10.815Z,21184.00
2019-05-30T08:25:10.805Z,21600.00
2019-05-30T08:26:10.790Z,23936.00
2019-05-30T08:27:10.772Z,26368.00
2019-05-30T08:28:10.762Z,26784.00
2019-05-30T08:29:10.748Z,25728.00
2019-05-30T08:30:10.862Z,25824.00
2019-05-30T08:31:10.722Z,27680.00
2019-05-30T08:32:10.706Z,29216.00
2019-05-30T08:33:10.713Z,31648.00
2019-05-30T08:34:10.681Z,37696.00
2019-05-30T08:35:10.664Z,46784.00
2019-05-30T08:36:10.670Z,45024.00
2019-05-30T08:37:10.642Z,45280.00
2019-05-30T08:38:10.646Z,85536.00
2019-05-30T08:39:10.625Z,93056.00
2019-05-30T08:40:10.605Z,53536.00
2019-05-30T08:41:10.596Z,47776.00
2019-05-30T08:42:10.588Z,42304.00
2019-05-30T08:43:10.576Z,40288.00
2019-05-30T08:44:10.564Z,38720.00
2019-05-30T08:45:10.637Z,38112.00
2019-05-30T08:46:10.543Z,35680.00
2019-05-30T08:47:10.533Z,35392.00
2019-05-30T08:48:10.524Z,35584.00
2019-05-30T08:49:10.514Z,36128.00
2019-05-30T08:50:10.510Z,36096.00
2019-05-30T08:51:10.495Z,35648.00
2019-05-30T08:52:10.483Z,36064.00
2019-05-30T08:53:10.476Z,36608.00
2019-05-30T08:54:13.516Z,34304.00
2019-05-30T08:55:10.458Z,29824.00
2019-05-30T08:56:10.445Z,27392.00
2019-05-30T08:57:10.436Z,24800.00
2019-05-30T08:58:10.428Z,24128.00
2019-05-30T08:59:10.410Z,26944.00
2019-05-30T09:00:10.410Z,29184.00
2019-05-30T09:01:10.390Z,30880.00
2019-05-30T09:02:10.380Z,31200.00
2019-05-30T09:03:10.375Z,30752.00
2019-05-30T09:04:10.357Z,29344.00
2019-05-30T09:05:10.355Z,28096.00
2019-05-30T09:06:10.335Z,31232.00
2019-05-30T09:07:10.327Z,38304.00
2019-05-30T09:08:10.316Z,42496.00
2019-05-30T09:09:10.303Z,47168.00
2019-05-30T09:10:10.294Z,45376.00
2019-05-30T09:11:10.286Z,48128.00
2019-05-30T09:12:10.284Z,50048.00
2019-05-30T09:13:10.272Z,44096.00
2019-05-30T09:14:10.253Z,44224.00
2019-05-30T09:15:10.247Z,38848.00
2019-05-30T09:16:10.232Z,35072.00
2019-05-30T09:17:10.223Z,34016.00
2019-05-30T09:18:10.215Z,32416.00
2019-05-30T09:19:10.204Z,29696.00
2019-05-30T09:20:10.193Z,28160.00
2019-05-30T09:21:10.186Z,26528.00
2019-05-30T09:22:10.175Z,27776.00
2019-05-30T09:23:10.162Z,31776.00
2019-05-30T09:24:10.156Z,35648.00
2019-05-30T09:25:10.143Z,35904.00
2019-05-30T09:26:10.135Z,36448.00
2019-05-30T09:27:10.123Z,39616.00
2019-05-30T09:28:10.114Z,43168.00
2019-05-30T09:29:10.108Z,54432.00
2019-05-30T09:30:10.094Z,49824.00
2019-05-30T09:31:10.084Z,53024.00
2019-05-30T09:32:10.078Z,46464.00
2019-05-30T09:33:10.066Z,42912.00
2019-05-30T09:34:12.082Z,39552.00
2019-05-30T09:35:10.051Z,33312.00
2019-05-30T09:36:13.384Z,28576.00
2019-05-30T09:37:10.030Z,28928.00
2019-05-30T09:38:10.021Z,28000.00
2019-05-30T09:39:10.011Z,27584.00
2019-05-30T09:40:10.006Z,27648.00
2019-05-30T09:41:09.992Z,25312.00
2019-05-30T09:42:09.983Z,25312.00
2019-05-30T09:43:09.973Z,28928.00
2019-05-30T09:44:09.963Z,31360.00
2019-05-30T09:45:09.959Z,35872.00
2019-05-30T09:46:09.949Z,40192.00
2019-05-30T09:47:09.937Z,38816.00
2019-05-30T09:48:09.926Z,35616.00
2019-05-30T09:49:09.916Z,34688.00
2019-05-30T09:50:09.902Z,32384.00
2019-05-30T09:51:09.893Z,31040.00
2019-05-30T09:52:09.883Z,28480.00
2019-05-30T09:53:09.876Z,25952.00
2019-05-30T09:54:09.862Z,25760.00
2019-05-30T09:55:09.887Z,26400.00
2019-05-30T09:56:09.841Z,27072.00
2019-05-30T09:57:09.830Z,25760.00
2019-05-30T09:58:09.820Z,24640.00
2019-05-30T09:59:09.813Z,26816.00
2019-05-30T10:00:09.799Z,29664.00
2019-05-30T10:01:09.792Z,31680.00
2019-05-30T10:02:09.780Z,32800.00
2019-05-30T10:03:09.767Z,32832.00
2019-05-30T10:04:09.756Z,32352.00
2019-05-30T10:05:09.748Z,31072.00
2019-05-30T10:06:09.735Z,29376.00
2019-05-30T10:07:09.728Z,28320.00
2019-05-30T10:08:09.715Z,28928.00
2019-05-30T10:09:09.706Z,30272.00
2019-05-30T10:10:09.697Z,31264.00
2019-05-30T10:11:09.689Z,32256.00
2019-05-30T10:12:09.673Z,32640.00
2019-05-30T10:13:09.663Z,30112.00
2019-05-30T10:14:09.652Z,27648.00
2019-05-30T10:15:09.666Z,26720.00
2019-05-30T10:16:09.634Z,27008.00
2019-05-30T10:17:09.625Z,30176.00
2019-05-30T10:18:09.615Z,33792.00
2019-05-30T10:19:09.600Z,33312.00
2019-05-30T10:20:09.592Z,30656.00
2019-05-30T10:21:09.579Z,27264.00
2019-05-30T10:22:09.568Z,26400.00
2019-05-30T10:23:09.561Z,29632.00
2019-05-30T10:24:09.547Z,29920.00
2019-05-30T10:25:09.540Z,33280.00
2019-05-30T10:26:09.546Z,36672.00
2019-05-30T10:27:09.516Z,35648.00
2019-05-30T10:28:09.506Z,34848.00
2019-05-30T10:29:09.500Z,31712.00
2019-05-30T10:30:09.487Z,30592.00
2019-05-30T10:31:09.477Z,29088.00
2019-05-30T10:32:09.467Z,31328.00
2019-05-30T10:33:09.456Z,31008.00
2019-05-30T10:34:09.447Z,27744.00
2019-05-30T10:35:09.436Z,27744.00
2019-05-30T10:36:09.426Z,26976.00
2019-05-30T10:37:09.415Z,27040.00
2019-05-30T10:38:09.401Z,27520.00
2019-05-30T10:39:09.393Z,28224.00
2019-05-30T10:40:09.383Z,29312.00
2019-05-30T10:41:09.369Z,28736.00
2019-05-30T10:42:09.368Z,28800.00
2019-05-30T10:43:09.351Z,32352.00
2019-05-30T10:44:09.340Z,32672.00
2019-05-30T10:45:09.331Z,36000.00
2019-05-30T10:46:09.319Z,63616.00
2019-05-30T10:47:09.310Z,49600.00
2019-05-30T10:48:09.300Z,39200.00
2019-05-30T10:49:09.286Z,37504.00
2019-05-30T10:50:09.276Z,29632.00
2019-05-30T10:51:09.264Z,27520.00
2019-05-30T10:52:09.255Z,29920.00
2019-05-30T10:53:09.246Z,30464.00
2019-05-30T10:54:09.235Z,30624.00
2019-05-30T10:55:09.225Z,26336.00
2019-05-30T10:56:09.211Z,20384.00
2019-05-30T10:57:09.207Z,19328.00
2019-05-30T10:58:09.190Z,21152.00
2019-05-30T10:59:09.181Z,20192.00
2019-05-30T11:00:10.067Z,18224.00
2019-05-30T11:01:09.170Z,17376.00
2019-05-30T11:02:09.148Z,16604.00
2019-05-30T11:03:09.137Z,16780.00
2019-05-30T11:04:09.127Z,22720.00
2019-05-30T11:05:09.117Z,29216.00
2019-05-30T11:06:09.104Z,30880.00
2019-05-30T11:07:11.595Z,30912.00
2019-05-30T11:08:09.090Z,33152.00
2019-05-30T11:09:09.083Z,40224.00
2019-05-30T11:10:09.063Z,39424.00
2019-05-30T11:11:09.049Z,38560.00
2019-05-30T11:12:09.044Z,33920.00
2019-05-30T11:13:09.027Z,32672.00
2019-05-30T11:14:09.022Z,29440.00
2019-05-30T11:15:09.009Z,30016.00
2019-05-30T11:16:08.995Z,34784.00
2019-05-30T11:17:09.005Z,41088.00
2019-05-30T11:18:08.986Z,48928.00
2019-05-30T11:19:08.967Z,48192.00
2019-05-30T11:20:08.954Z,39264.00
2019-05-30T11:21:08.949Z,35072.00
2019-05-30T11:22:08.936Z,36352.00
2019-05-30T11:23:08.929Z,35520.00
2019-05-30T11:24:08.916Z,32992.00
2019-05-30T11:25:08.907Z,36640.00
2019-05-30T11:26:08.902Z,45280.00
2019-05-30T11:27:08.887Z,47968.00
2019-05-30T11:28:08.883Z,46912.00
2019-05-30T11:29:08.871Z,47264.00
2019-05-30T11:30:08.858Z,47680.00
2019-05-30T11:31:08.850Z,50176.00
2019-05-30T11:32:08.855Z,47424.00
2019-05-30T11:33:08.834Z,44768.00
2019-05-30T11:34:08.827Z,45216.00
2019-05-30T11:35:08.816Z,44320.00
2019-05-30T11:36:08.806Z,37504.00
2019-05-30T11:37:18.801Z,33664.00
2019-05-30T11:38:08.787Z,29696.00
2019-05-30T11:39:08.778Z,26240.00
2019-05-30T11:40:08.771Z,26912.00
2019-05-30T11:41:08.762Z,30048.00
2019-05-30T11:42:08.755Z,31808.00
2019-05-30T11:43:08.751Z,32672.00
2019-05-30T11:44:08.733Z,31360.00
2019-05-30T11:45:08.723Z,29408.00
2019-05-30T11:46:08.726Z,27072.00
2019-05-30T11:47:08.708Z,24384.00
2019-05-30T11:48:08.719Z,24928.00
2019-05-30T11:49:08.695Z,25408.00
2019-05-30T11:50:08.677Z,24448.00
2019-05-30T11:51:08.671Z,24672.00
2019-05-30T11:52:08.661Z,23872.00
2019-05-30T11:53:08.649Z,22528.00
2019-05-30T11:54:08.638Z,21248.00
2019-05-30T11:55:08.632Z,20608.00
2019-05-30T11:56:08.620Z,20224.00
2019-05-30T11:57:08.615Z,20480.00
2019-05-30T11:58:08.594Z,21536.00
2019-05-30T11:59:08.587Z,23328.00
2019-05-30T12:00:08.581Z,22688.00
2019-05-30T12:01:08.566Z,21472.00
2019-05-30T12:02:08.552Z,21696.00
2019-05-30T12:03:08.541Z,21344.00
2019-05-30T12:04:08.532Z,23488.00
2019-05-30T12:05:08.530Z,24320.00
2019-05-30T12:06:08.507Z,24992.00
2019-05-30T12:07:08.498Z,25152.00
2019-05-30T12:08:08.491Z,21472.00
2019-05-30T12:09:08.477Z,19424.00
2019-05-30T12:10:08.467Z,21600.00
2019-05-30T12:11:08.455Z,21312.00
2019-05-30T12:12:08.444Z,20480.00
2019-05-30T12:13:08.436Z,19040.00
2019-05-30T12:14:08.427Z,16792.00